Time;durP1;ratioP1;P1;durP2;ratioP2;P2;SDS_P1;SDS_P2;PMS_P1;PMS_P2;Temp;Humidity;BMP_temperature;BMP_pressure;BME280_temperature;BME280_humidity;BME280_pressure;Samples;Min_cycle;Max_cycle;Signal;HPM_P1;HPM_P2
2021/07/03 00:01:16;;;;;;;30.70;29.30;;;13.40;99.90;;;;;;5036554;28;20057;-60
2021/07/03 00:03:44;;;;;;;32.28;30.77;;;13.30;99.90;;;;;;5036530;28;20493;-61
2021/07/03 00:06:11;;;;;;;31.65;29.85;;;13.30;99.90;;;;;;5036502;28;20430;-60
2021/07/03 00:08:39;;;;;;;29.58;27.90;;;13.40;99.90;;;;;;5036351;28;20529;-60
2021/07/03 00:11:08;;;;;;;30.25;28.55;;;13.70;99.90;;;;;;5036125;28;20096;-60
2021/07/03 00:13:36;;;;;;;31.63;29.92;;;13.70;99.90;;;;;;5036027;28;20033;-60
2021/07/03 00:16:04;;;;;;;27.58;26.27;;;13.80;99.90;;;;;;5036363;28;20033;-61
2021/07/03 00:18:32;;;;;;;28.13;26.63;;;13.90;99.90;;;;;;5036059;28;20477;-60
2021/07/03 00:20:59;;;;;;;27.52;26.02;;;14.10;99.90;;;;;;5036279;28;20431;-61
2021/07/03 00:23:26;;;;;;;26.35;24.95;;;14.20;99.90;;;;;;5036209;28;20022;-60
2021/07/03 00:25:54;;;;;;;25.77;24.48;;;14.40;99.90;;;;;;5036323;28;20025;-62
2021/07/03 00:28:21;;;;;;;24.75;23.35;;;14.40;99.90;;;;;;5036025;28;20037;-62
2021/07/03 00:30:48;;;;;;;24.98;23.67;;;14.50;99.90;;;;;;5036039;28;20079;-62
2021/07/03 00:33:16;;;;;;;24.45;23.08;;;14.70;99.90;;;;;;5036292;28;20021;-61
2021/07/03 00:35:44;;;;;;;23.73;22.42;;;14.80;99.90;;;;;;5036023;28;20024;-61
2021/07/03 00:38:11;;;;;;;23.02;21.85;;;14.90;99.90;;;;;;5035907;28;20449;-61
2021/07/03 00:40:39;;;;;;;22.42;21.17;;;15.00;99.90;;;;;;5035947;28;20060;-60
2021/07/03 00:43:06;;;;;;;22.17;21.17;;;15.10;99.90;;;;;;5035828;28;20029;-61
2021/07/03 00:45:34;;;;;;;22.38;21.27;;;15.20;99.90;;;;;;5035800;28;20017;-61
2021/07/03 00:48:01;;;;;;;21.63;20.52;;;15.30;99.90;;;;;;5035611;28;20087;-62
2021/07/03 00:50:29;;;;;;;22.50;21.30;;;15.30;99.90;;;;;;5035855;28;20080;-61
2021/07/03 00:52:56;;;;;;;20.50;19.30;;;15.40;99.90;;;;;;5035509;28;20382;-61
2021/07/03 00:55:26;;;;;;;19.80;19.00;;;15.50;99.90;;;;;;5035550;28;20025;-61
2021/07/03 00:57:54;;;;;;;19.27;18.37;;;15.50;99.90;;;;;;5035468;28;20033;-61
2021/07/03 01:00:23;;;;;;;18.98;17.95;;;15.50;99.90;;;;;;5035457;28;20057;-61
2021/07/03 01:02:50;;;;;;;21.08;19.98;;;15.70;99.90;;;;;;5035523;28;20044;-61
2021/07/03 01:05:18;;;;;;;19.50;18.55;;;15.90;99.90;;;;;;5035458;28;20046;-61
2021/07/03 01:07:45;;;;;;;20.13;19.20;;;16.10;99.90;;;;;;5035513;28;20029;-61
2021/07/03 01:10:25;;;;;;;18.65;17.75;;;16.20;99.90;;;;;;5035401;28;20585;-61
2021/07/03 01:12:52;;;;;;;19.70;18.67;;;16.20;99.90;;;;;;5035450;28;20390;-61
2021/07/03 01:15:20;;;;;;;18.63;17.77;;;16.20;99.90;;;;;;5035386;28;20612;-61
2021/07/03 01:17:48;;;;;;;19.48;18.48;;;16.20;99.90;;;;;;5035257;28;20030;-61
2021/07/03 01:20:16;;;;;;;18.15;17.35;;;16.40;99.90;;;;;;5035194;28;20029;-61
2021/07/03 01:22:45;;;;;;;16.67;15.98;;;16.50;99.90;;;;;;5035333;28;20155;-61
2021/07/03 01:25:14;;;;;;;17.13;16.13;;;16.40;99.90;;;;;;5035138;28;20502;-61
2021/07/03 01:27:41;;;;;;;16.27;15.52;;;16.50;99.90;;;;;;5035051;28;20506;-61
2021/07/03 01:30:12;;;;;;;17.92;17.02;;;16.60;99.90;;;;;;5034822;28;20024;-61
2021/07/03 01:32:39;;;;;;;16.92;16.02;;;16.60;99.90;;;;;;5035048;28;20431;-61
2021/07/03 01:35:07;;;;;;;16.88;16.20;;;16.70;99.90;;;;;;5034942;28;20433;-62
2021/07/03 01:37:34;;;;;;;16.00;15.20;;;16.70;99.90;;;;;;5034794;28;20033;-60
2021/07/03 01:40:03;;;;;;;15.80;15.00;;;16.70;99.90;;;;;;5035088;28;20079;-60
2021/07/03 01:42:30;;;;;;;14.70;14.00;;;16.90;99.90;;;;;;5034878;28;20030;-60
2021/07/03 01:44:58;;;;;;;13.75;13.05;;;17.00;99.90;;;;;;5033346;28;20026;-59
2021/07/03 01:47:25;;;;;;;12.48;11.90;;;17.00;99.90;;;;;;5033314;28;20040;-62
2021/07/03 01:49:52;;;;;;;12.27;11.68;;;17.00;99.90;;;;;;5034589;28;20032;-61
2021/07/03 01:52:20;;;;;;;11.77;11.30;;;17.10;99.90;;;;;;5033387;28;20087;-61
2021/07/03 01:54:47;;;;;;;11.45;10.98;;;17.20;99.90;;;;;;5034532;28;20018;-62
2021/07/03 01:57:15;;;;;;;10.20;9.70;;;17.30;99.90;;;;;;5034437;28;20076;-62
2021/07/03 01:59:42;;;;;;;7.47;7.00;;;17.50;99.90;;;;;;5033945;28;20025;-63
2021/07/03 02:02:09;;;;;;;6.10;5.70;;;17.70;99.90;;;;;;5034267;28;20027;-62
2021/07/03 02:04:36;;;;;;;6.72;5.60;;;17.70;99.90;;;;;;5034203;28;20045;-61
2021/07/03 02:07:04;;;;;;;6.70;6.30;;;17.90;99.90;;;;;;5034284;28;20026;-62
2021/07/03 02:09:31;;;;;;;5.88;5.47;;;17.90;99.90;;;;;;5034151;28;20026;-62
2021/07/03 02:11:59;;;;;;;6.15;5.70;;;17.90;99.90;;;;;;5034155;28;20037;-61
2021/07/03 02:14:26;;;;;;;6.05;5.80;;;18.00;99.90;;;;;;5034240;28;20136;-61
2021/07/03 02:16:53;;;;;;;5.75;5.35;;;18.20;99.90;;;;;;5034177;28;20018;-61
2021/07/03 02:19:21;;;;;;;5.03;4.78;;;18.10;99.90;;;;;;5034293;28;20029;-62
2021/07/03 02:21:48;;;;;;;5.20;4.90;;;18.10;99.90;;;;;;5034147;28;20037;-61
2021/07/03 02:24:15;;;;;;;5.00;4.70;;;18.10;99.90;;;;;;5034121;28;20049;-64
2021/07/03 02:26:43;;;;;;;4.30;4.10;;;18.20;99.90;;;;;;5033859;28;20025;-61
2021/07/03 02:29:11;;;;;;;4.40;4.20;;;18.30;99.90;;;;;;5033924;28;20053;-62
2021/07/03 02:31:38;;;;;;;4.50;4.20;;;18.50;99.90;;;;;;5033954;28;20052;-60
2021/07/03 02:34:06;;;;;;;4.65;4.35;;;18.40;99.90;;;;;;5034120;28;20026;-62
2021/07/03 02:36:33;;;;;;;4.22;3.90;;;18.40;99.90;;;;;;5033888;28;20018;-62
2021/07/03 02:39:00;;;;;;;3.85;3.60;;;18.50;99.90;;;;;;5033910;28;20108;-62
2021/07/03 02:41:28;;;;;;;3.38;3.17;;;18.60;99.90;;;;;;5033631;28;20022;-62
2021/07/03 02:43:58;;;;;;;3.47;3.00;;;18.70;99.90;;;;;;5033985;28;20052;-63
2021/07/03 02:46:25;;;;;;;;;;;18.90;99.90;;;;;;5034816;28;20053;-62
2021/07/03 02:48:52;;;;;;;3.70;3.40;;;18.90;99.90;;;;;;5033479;28;20368;-63
2021/07/03 02:51:20;;;;;;;4.10;3.80;;;18.90;99.90;;;;;;5033505;28;20045;-61
2021/07/03 02:53:47;;;;;;;3.38;3.17;;;18.90;99.90;;;;;;5033603;28;20056;-62
2021/07/03 02:56:14;;;;;;;4.38;4.07;;;18.90;99.90;;;;;;5033444;28;20080;-62
2021/07/03 02:58:42;;;;;;;5.60;5.20;;;18.90;99.90;;;;;;5033420;28;20057;-62
2021/07/03 03:01:10;;;;;;;6.00;5.60;;;18.90;99.90;;;;;;5033415;28;20382;-61
2021/07/03 03:03:37;;;;;;;11.75;10.85;;;18.90;99.90;;;;;;5033065;28;20081;-63
2021/07/03 03:06:04;;;;;;;3.85;3.65;;;19.10;99.90;;;;;;5033479;28;20474;-61
2021/07/03 03:08:32;;;;;;;5.43;5.05;;;19.00;99.90;;;;;;5033356;28;20026;-62
2021/07/03 03:10:59;;;;;;;5.50;5.20;;;18.90;99.90;;;;;;5032454;28;20025;-62
2021/07/03 03:13:26;;;;;;;5.53;5.10;;;18.90;99.90;;;;;;5033393;28;20156;-62
2021/07/03 03:15:54;;;;;;;5.85;5.45;;;19.00;99.90;;;;;;5033131;28;20022;-61
2021/07/03 03:18:21;;;;;;;4.95;4.55;;;18.90;99.90;;;;;;5033110;28;20032;-62
2021/07/03 03:20:48;;;;;;;4.88;4.45;;;18.90;99.90;;;;;;5032992;28;20501;-62
2021/07/03 03:23:15;;;;;;;4.60;4.30;;;19.10;99.90;;;;;;5033111;28;20021;-62
2021/07/03 03:25:43;;;;;;;4.60;4.30;;;19.00;99.90;;;;;;5033129;28;20022;-62
2021/07/03 03:28:10;;;;;;;5.53;5.15;;;19.10;99.90;;;;;;5032901;28;20029;-62
2021/07/03 03:30:37;;;;;;;5.10;4.40;;;19.20;99.90;;;;;;5033408;28;20095;-62
2021/07/03 03:33:05;;;;;;;5.10;4.60;;;19.20;99.90;;;;;;5032908;28;20025;-63
2021/07/03 03:35:32;;;;;;;4.32;3.92;;;19.30;99.90;;;;;;5033254;28;20017;-62
2021/07/03 03:37:59;;;;;;;4.10;3.95;;;19.10;99.90;;;;;;5032913;28;20029;-62
2021/07/03 03:40:27;;;;;;;4.40;4.00;;;19.00;99.90;;;;;;5032872;28;20029;-62
2021/07/03 03:42:57;;;;;;;4.53;4.13;;;18.90;99.90;;;;;;5032740;28;20060;-62
2021/07/03 03:45:25;;;;;;;4.10;3.90;;;18.90;99.90;;;;;;5032812;28;20033;-62
2021/07/03 03:47:52;;;;;;;4.57;4.15;;;19.00;99.90;;;;;;5032742;28;20025;-62
2021/07/03 03:50:19;;;;;;;4.10;3.80;;;19.10;99.90;;;;;;5033000;28;20475;-61
2021/07/03 03:52:47;;;;;;;4.00;3.70;;;19.10;99.90;;;;;;5032744;28;20013;-61
2021/07/03 03:55:14;;;;;;;3.85;3.55;;;19.00;99.90;;;;;;5032583;28;20017;-61
2021/07/03 03:57:41;;;;;;;4.18;3.80;;;18.90;99.90;;;;;;5032920;28;20030;-61
2021/07/03 04:00:10;;;;;;;4.72;4.43;;;18.80;99.90;;;;;;5032619;28;20018;-61
2021/07/03 04:02:37;;;;;;;4.80;4.50;;;18.90;99.90;;;;;;5032598;28;20026;-61
2021/07/03 04:05:06;;;;;;;4.05;3.90;;;18.70;99.90;;;;;;5032394;28;20101;-62
2021/07/03 04:07:33;;;;;;;4.50;4.30;;;18.40;99.90;;;;;;5032507;28;20029;-61
2021/07/03 04:10:01;;;;;;;4.78;4.57;;;18.30;99.90;;;;;;5032487;28;20044;-62
2021/07/03 04:12:28;;;;;;;4.70;4.50;;;18.50;99.90;;;;;;5032411;28;20379;-61
2021/07/03 04:14:55;;;;;;;4.93;4.45;;;18.60;99.90;;;;;;5032445;28;20038;-62
2021/07/03 04:17:23;;;;;;;5.53;4.70;;;18.60;99.90;;;;;;5032605;28;20096;-62
2021/07/03 04:19:50;;;;;;;5.68;5.20;;;18.40;99.90;;;;;;5032517;28;20028;-62
2021/07/03 04:22:17;;;;;;;5.78;5.32;;;18.30;99.90;;;;;;5033242;28;20033;-61
2021/07/03 04:24:45;;;;;;;7.85;5.72;;;18.40;99.90;;;;;;5036145;28;20029;-62
2021/07/03 04:27:13;;;;;;;6.25;5.57;;;18.00;99.90;;;;;;5036354;28;20335;-61
2021/07/03 04:29:41;;;;;;;6.63;5.40;;;18.10;99.90;;;;;;5036362;28;20040;-61
2021/07/03 04:32:09;;;;;;;5.88;5.40;;;17.80;99.90;;;;;;5036075;28;20039;-60
2021/07/03 04:34:37;;;;;;;6.00;5.50;;;17.60;99.90;;;;;;5035918;28;20022;-61
2021/07/03 04:37:04;;;;;;;6.00;5.50;;;17.40;99.90;;;;;;5035911;28;20386;-61
2021/07/03 04:39:32;;;;;;;16.42;6.30;;;17.30;99.90;;;;;;5035998;28;20026;-62
2021/07/03 04:41:59;;;;;;;7.10;5.80;;;17.20;99.90;;;;;;5035963;28;20021;-61
2021/07/03 04:44:26;;;;;;;6.13;5.60;;;17.30;99.90;;;;;;5035662;28;20030;-61
2021/07/03 04:46:55;;;;;;;7.05;6.45;;;17.40;99.90;;;;;;5035678;28;20017;-62
2021/07/03 04:49:22;;;;;;;7.55;6.93;;;17.50;99.90;;;;;;5035420;28;20033;-61
2021/07/03 04:51:49;;;;;;;6.88;6.25;;;17.60;99.90;;;;;;5035555;28;20067;-61
2021/07/03 04:54:16;;;;;;;6.68;6.18;;;17.70;99.90;;;;;;5033881;28;20513;-61
2021/07/03 04:56:44;;;;;;;7.20;6.05;;;17.60;99.90;;;;;;5035177;28;20140;-62
2021/07/03 04:59:11;;;;;;;6.25;5.90;;;17.60;99.90;;;;;;5035034;28;20486;-61
2021/07/03 05:01:38;;;;;;;8.00;6.20;;;17.60;99.90;;;;;;5035088;28;20025;-62
2021/07/03 05:04:06;;;;;;;6.50;6.00;;;17.60;99.90;;;;;;5034846;28;20107;-61
2021/07/03 05:06:33;;;;;;;6.10;5.68;;;17.70;99.90;;;;;;5034911;28;20075;-61
2021/07/03 05:09:00;;;;;;;6.55;5.97;;;17.60;99.90;;;;;;5034807;28;20036;-62
2021/07/03 05:11:28;;;;;;;6.78;6.18;;;17.40;99.90;;;;;;5034865;28;20021;-61
2021/07/03 05:13:55;;;;;;;6.93;6.30;;;17.30;99.90;;;;;;5034777;28;20017;-62
2021/07/03 05:16:22;;;;;;;7.30;6.70;;;17.10;99.90;;;;;;5034686;28;20025;-62
2021/07/03 05:18:49;;;;;;;7.72;5.75;;;17.10;99.90;;;;;;5035097;28;20029;-62
2021/07/03 05:21:17;;;;;;;6.85;6.30;;;17.10;99.90;;;;;;5034917;28;20578;-60
2021/07/03 05:23:44;;;;;;;6.97;6.30;;;17.10;99.90;;;;;;5034705;28;20059;-61
2021/07/03 05:26:11;;;;;;;6.80;6.15;;;17.00;99.90;;;;;;5034374;28;20032;-61
2021/07/03 05:28:39;;;;;;;7.25;6.55;;;17.00;99.90;;;;;;5034389;28;20022;-61
2021/07/03 05:31:06;;;;;;;10.32;7.15;;;17.00;99.90;;;;;;5034558;28;20024;-62
2021/07/03 05:33:33;;;;;;;7.25;6.65;;;17.00;99.90;;;;;;5032443;28;20025;-61
2021/07/03 05:36:02;;;;;;;7.57;7.18;;;17.00;99.90;;;;;;5034200;28;20543;-61
2021/07/03 05:38:30;;;;;;;8.10;7.50;;;16.90;99.90;;;;;;5034759;28;20435;-61
2021/07/03 05:41:00;;;;;;;7.80;7.25;;;16.90;99.90;;;;;;5034857;28;20026;-63
2021/07/03 05:43:28;;;;;;;7.60;7.10;;;16.80;99.90;;;;;;5034462;28;20022;-62
2021/07/03 05:45:55;;;;;;;8.05;7.63;;;16.90;99.90;;;;;;5034397;28;20029;-62
2021/07/03 05:48:23;;;;;;;7.82;7.20;;;16.80;99.90;;;;;;5034296;28;20092;-62
2021/07/03 05:50:52;;;;;;;8.23;7.70;;;16.80;99.90;;;;;;5034204;28;20063;-61
2021/07/03 05:53:19;;;;;;;8.13;7.63;;;16.80;99.90;;;;;;5034237;28;20052;-62
2021/07/03 05:55:46;;;;;;;7.75;7.15;;;16.70;99.90;;;;;;5033982;28;20021;-61
2021/07/03 05:58:14;;;;;;;9.57;8.40;;;16.80;99.90;;;;;;5034065;28;20053;-61
2021/07/03 06:00:41;;;;;;;9.00;8.50;;;16.70;99.90;;;;;;5034179;28;20025;-59
2021/07/03 06:03:09;;;;;;;9.05;8.35;;;16.70;99.90;;;;;;5034004;28;20026;-60
2021/07/03 06:05:36;;;;;;;8.85;8.27;;;16.60;99.90;;;;;;5033832;28;20143;-61
2021/07/03 06:08:04;;;;;;;9.30;8.80;;;16.50;99.90;;;;;;5033884;28;20070;-61
2021/07/03 06:10:31;;;;;;;9.48;8.77;;;16.50;99.90;;;;;;5033934;28;20036;-61
2021/07/03 06:12:58;;;;;;;9.68;9.07;;;16.50;99.90;;;;;;5033994;28;20026;-60
2021/07/03 06:15:26;;;;;;;9.70;9.10;;;16.40;99.90;;;;;;5034018;28;20047;-60
2021/07/03 06:17:54;;;;;;;9.90;9.38;;;16.40;99.90;;;;;;5033693;28;20037;-61
2021/07/03 06:20:22;;;;;;;10.02;9.43;;;16.40;99.90;;;;;;5032301;28;20501;-62
2021/07/03 06:22:50;;;;;;;10.82;9.88;;;16.40;99.90;;;;;;5033645;28;20040;-61
2021/07/03 06:25:17;;;;;;;10.40;9.80;;;16.40;99.90;;;;;;5033454;28;20458;-60
2021/07/03 06:27:44;;;;;;;10.70;9.93;;;16.40;99.90;;;;;;5033626;28;20033;-61
2021/07/03 06:30:12;;;;;;;10.52;10.02;;;16.30;99.90;;;;;;5033342;28;20109;-61
2021/07/03 06:32:40;;;;;;;11.05;10.35;;;16.30;99.90;;;;;;5033602;28;20029;-61
2021/07/03 06:35:08;;;;;;;11.68;10.98;;;16.10;99.90;;;;;;5033427;28;20104;-61
2021/07/03 06:37:36;;;;;;;12.13;11.32;;;16.00;99.90;;;;;;5033513;28;20029;-60
2021/07/03 06:40:04;;;;;;;12.40;11.73;;;15.90;99.90;;;;;;5033653;28;20371;-60
2021/07/03 06:42:31;;;;;;;13.93;13.15;;;15.70;99.90;;;;;;5033536;28;20690;-62
2021/07/03 06:44:59;;;;;;;14.85;13.75;;;15.70;99.90;;;;;;5033431;28;20555;-62
2021/07/03 06:47:27;;;;;;;13.32;12.63;;;15.50;99.90;;;;;;5033187;28;20103;-61
2021/07/03 06:49:54;;;;;;;14.68;13.70;;;15.50;99.90;;;;;;5033409;28;20017;-61
2021/07/03 06:52:22;;;;;;;12.82;12.23;;;15.50;99.90;;;;;;5033343;28;20021;-61
2021/07/03 06:54:50;;;;;;;14.38;13.43;;;15.40;99.90;;;;;;5033599;28;20049;-62
2021/07/03 06:57:17;;;;;;;14.32;13.48;;;15.30;99.90;;;;;;5033178;28;20022;-62
2021/07/03 06:59:44;;;;;;;14.40;13.52;;;15.20;99.90;;;;;;5033169;28;20021;-61
2021/07/03 07:02:12;;;;;;;13.93;13.02;;;15.20;99.90;;;;;;5033227;28;20022;-61
2021/07/03 07:04:39;;;;;;;14.75;13.80;;;15.00;99.90;;;;;;5032982;28;20124;-61
2021/07/03 07:07:06;;;;;;;15.40;14.40;;;15.00;99.90;;;;;;5032957;28;20475;-61
2021/07/03 07:09:34;;;;;;;15.60;14.63;;;14.80;99.90;;;;;;5033024;28;20041;-62
2021/07/03 07:12:01;;;;;;;16.13;15.13;;;14.70;99.90;;;;;;5032959;28;20076;-60
2021/07/03 07:14:28;;;;;;;16.13;15.13;;;14.60;99.90;;;;;;5032915;28;20045;-60
2021/07/03 07:16:55;;;;;;;18.48;17.10;;;14.60;99.90;;;;;;5032965;28;20022;-61
2021/07/03 07:19:23;;;;;;;18.45;17.40;;;14.50;99.90;;;;;;5033038;28;20056;-61
2021/07/03 07:21:50;;;;;;;17.30;16.33;;;14.30;99.90;;;;;;5032924;28;20145;-62
2021/07/03 07:24:18;;;;;;;19.00;17.73;;;14.20;99.90;;;;;;5032850;28;20025;-60
2021/07/03 07:26:46;;;;;;;20.13;19.05;;;14.20;99.90;;;;;;5032887;28;20052;-61
2021/07/03 07:29:13;;;;;;;22.52;21.13;;;14.10;99.90;;;;;;5032945;28;20022;-60
2021/07/03 07:31:41;;;;;;;23.63;22.15;;;14.10;99.90;;;;;;5032862;28;20031;-61
2021/07/03 07:34:08;;;;;;;23.48;22.02;;;14.10;99.90;;;;;;5032893;28;20025;-61
2021/07/03 07:36:36;;;;;;;27.15;25.45;;;14.00;99.90;;;;;;5032701;28;20022;-62
2021/07/03 07:39:04;;;;;;;27.23;25.77;;;14.00;99.90;;;;;;5033114;28;20083;-60
2021/07/03 07:41:31;;;;;;;29.77;27.90;;;13.90;99.90;;;;;;5032563;28;20065;-62
2021/07/03 07:43:58;;;;;;;29.67;27.88;;;14.00;99.90;;;;;;5032853;28;20033;-62
2021/07/03 07:46:26;;;;;;;31.77;29.65;;;14.00;99.90;;;;;;5032577;28;20026;-62
2021/07/03 07:48:56;;;;;;;33.78;31.67;;;14.00;99.90;;;;;;5032579;28;20029;-63
2021/07/03 07:51:23;;;;;;;34.73;32.63;;;14.00;99.90;;;;;;5032658;28;20017;-62
2021/07/03 07:53:51;;;;;;;35.13;32.72;;;14.10;99.90;;;;;;5032561;28;20029;-62
2021/07/03 07:56:18;;;;;;;35.22;33.22;;;14.10;99.90;;;;;;5032637;28;20021;-62
2021/07/03 07:58:47;;;;;;;37.78;35.17;;;14.20;99.90;;;;;;5036509;28;20106;-61
2021/07/03 08:01:14;;;;;;;42.47;39.53;;;14.20;99.90;;;;;;5036307;28;20053;-61
2021/07/03 08:03:44;;;;;;;41.08;38.28;;;14.20;99.90;;;;;;5036257;28;20444;-62
2021/07/03 08:06:12;;;;;;;41.50;38.80;;;14.20;99.90;;;;;;5036593;28;20026;-62
2021/07/03 08:08:39;;;;;;;41.92;39.13;;;14.20;99.90;;;;;;5036323;28;20033;-63
2021/07/03 08:11:07;;;;;;;44.50;41.40;;;14.20;99.90;;;;;;5036326;28;20025;-62
2021/07/03 08:13:34;;;;;;;45.10;41.92;;;14.20;99.90;;;;;;5036306;28;20033;-61
2021/07/03 08:16:02;;;;;;;47.53;44.03;;;14.20;99.90;;;;;;5036243;28;20069;-62
2021/07/03 08:18:29;;;;;;;112.97;102.57;;;14.10;99.90;;;;;;5036292;28;20029;-61
2021/07/03 08:20:56;;;;;;;87.57;80.22;;;14.00;99.90;;;;;;5036117;28;20025;-61
2021/07/03 08:23:24;;;;;;;64.97;59.92;;;14.10;99.90;;;;;;5036052;28;20072;-62
2021/07/03 08:25:51;;;;;;;54.42;50.42;;;14.00;99.90;;;;;;5036168;28;20029;-61
2021/07/03 08:28:18;;;;;;;47.45;44.67;;;14.00;99.90;;;;;;5036030;28;20033;-62
2021/07/03 08:30:46;;;;;;;45.67;42.55;;;14.00;99.90;;;;;;5036054;28;20056;-62
2021/07/03 08:33:13;;;;;;;45.30;42.38;;;14.00;99.90;;;;;;5035956;28;20478;-62
2021/07/03 08:35:40;;;;;;;43.97;40.97;;;13.90;99.90;;;;;;5036028;28;20484;-62
2021/07/03 08:38:08;;;;;;;44.38;41.40;;;13.90;99.90;;;;;;5036004;28;20474;-63
2021/07/03 08:40:35;;;;;;;44.85;41.85;;;13.90;99.90;;;;;;5035943;28;20029;-61
2021/07/03 08:43:03;;;;;;;46.63;43.20;;;13.80;99.90;;;;;;5036021;28;20028;-61
2021/07/03 08:45:30;;;;;;;48.47;45.03;;;13.80;99.90;;;;;;5035973;28;20045;-61
2021/07/03 08:47:57;;;;;;;53.17;49.30;;;13.70;99.90;;;;;;5035485;28;20032;-61
2021/07/03 08:50:25;;;;;;;55.13;51.00;;;13.70;99.90;;;;;;5034344;28;20030;-62
2021/07/03 08:52:52;;;;;;;55.28;51.40;;;13.70;99.90;;;;;;5035600;28;20025;-62
2021/07/03 08:55:30;;;;;;;62.35;57.65;;;13.70;99.90;;;;;;5035445;28;20018;-61
2021/07/03 08:58:09;;;;;;;59.53;54.95;;;13.80;99.90;;;;;;5035430;28;20017;-61
2021/07/03 09:00:41;;;;;;;57.60;53.35;;;13.70;99.90;;;;;;5035438;28;20013;-62
2021/07/03 09:03:19;;;;;;;57.65;53.28;;;13.70;99.90;;;;;;5035323;28;20060;-62
2021/07/03 09:05:55;;;;;;;54.70;50.58;;;13.70;99.90;;;;;;5035171;28;20052;-62
2021/07/03 09:08:24;;;;;;;53.75;50.05;;;13.70;99.90;;;;;;5034594;28;20449;-62
2021/07/03 09:11:08;;;;;;;53.63;49.60;;;13.70;99.90;;;;;;5034652;28;20025;-62
2021/07/03 09:13:37;;;;;;;54.45;50.50;;;13.70;99.90;;;;;;5035292;28;20067;-62
2021/07/03 09:16:05;;;;;;;52.92;49.28;;;13.70;99.90;;;;;;5035039;28;20375;-62
2021/07/03 09:18:33;;;;;;;53.67;49.65;;;13.60;99.90;;;;;;5035039;28;20100;-62
2021/07/03 09:21:03;;;;;;;57.13;52.95;;;13.60;99.90;;;;;;5034926;28;20061;-61
2021/07/03 09:23:33;;;;;;;58.17;54.15;;;13.50;99.90;;;;;;5035057;28;20029;-62
2021/07/03 09:26:04;;;;;;;57.45;53.42;;;13.40;99.90;;;;;;5034926;28;20040;-61
2021/07/03 09:28:38;;;;;;;55.17;51.22;;;13.50;99.90;;;;;;5034838;28;20029;-61
2021/07/03 09:31:07;;;;;;;51.00;47.00;;;13.40;99.90;;;;;;5034791;28;20029;-61
2021/07/03 09:33:39;;;;;;;54.58;50.67;;;13.30;99.90;;;;;;5034931;28;20029;-61
2021/07/03 09:36:09;;;;;;;59.05;54.22;;;13.30;99.90;;;;;;5034686;28;20083;-61
2021/07/03 09:38:49;;;;;;;56.80;52.63;;;13.20;99.90;;;;;;5034639;28;20018;-62
2021/07/03 09:41:22;;;;;;;55.73;51.57;;;13.30;99.90;;;;;;5034750;28;20255;-62
2021/07/03 09:43:50;;;;;;;60.95;56.75;;;13.20;99.90;;;;;;5033261;28;20124;-61
2021/07/03 09:47:01;;;;;;;53.80;49.50;;;13.20;99.90;;;;;;5034378;28;20033;-61
2021/07/03 09:49:30;;;;;;;;;;;13.30;99.90;;;;;;5032667;28;20041;-61
2021/07/03 09:52:00;;;;;;;58.85;54.60;;;13.30;99.90;;;;;;5033896;28;19912;-61
2021/07/03 09:54:29;;;;;;;62.17;57.58;;;13.30;99.90;;;;;;5032891;28;20022;-62
2021/07/03 09:57:00;;;;;;;65.25;60.30;;;13.40;99.90;;;;;;5034225;28;20075;-61
2021/07/03 09:59:33;;;;;;;;;;;13.50;99.90;;;;;;5034868;28;20036;-61
2021/07/03 10:02:01;;;;;;;57.50;53.50;;;13.50;99.90;;;;;;5034079;28;20007;-62
2021/07/03 10:04:29;;;;;;;52.30;48.03;;;13.70;99.90;;;;;;5034043;28;20053;-61
2021/07/03 10:07:05;;;;;;;53.00;48.92;;;13.90;99.90;;;;;;5033959;28;20035;-60
2021/07/03 10:09:37;;;;;;;50.22;46.63;;;13.90;99.90;;;;;;5033908;28;20017;-62
2021/07/03 10:12:14;;;;;;;52.60;48.70;;;13.90;99.90;;;;;;5033871;28;20364;-61
2021/07/03 10:14:49;;;;;;;54.05;50.33;;;13.90;99.90;;;;;;5033995;28;20093;-61
2021/07/03 10:17:31;;;;;;;53.10;49.30;;;14.00;99.90;;;;;;5033842;28;20030;-61
2021/07/03 10:19:58;;;;;;;51.90;48.42;;;13.90;99.90;;;;;;5033439;28;20040;-62
2021/07/03 10:22:30;;;;;;;51.72;48.13;;;14.00;99.90;;;;;;5033677;28;20056;-61
2021/07/03 10:25:18;;;;;;;49.83;46.38;;;14.00;99.90;;;;;;5033766;28;20021;-62
2021/07/03 10:27:54;;;;;;;48.20;44.83;;;14.00;99.90;;;;;;5033852;28;20072;-62
2021/07/03 10:30:29;;;;;;;46.80;43.70;;;14.00;99.90;;;;;;5033590;28;20420;-61
2021/07/03 10:33:06;;;;;;;45.72;42.55;;;13.90;99.90;;;;;;5033526;28;20021;-60
2021/07/03 10:35:53;;;;;;;46.72;43.53;;;13.90;99.90;;;;;;5033492;28;20470;-61
2021/07/03 10:38:26;;;;;;;48.35;44.63;;;13.70;99.90;;;;;;5033524;28;20053;-61
2021/07/03 10:40:56;;;;;;;47.13;44.05;;;13.70;99.90;;;;;;5033534;28;20026;-62
2021/07/03 10:43:23;;;;;;;45.83;42.75;;;13.60;99.90;;;;;;5033377;28;20021;-61
2021/07/03 10:46:12;;;;;;;43.85;41.08;;;13.50;99.90;;;;;;5033320;28;20556;-62
2021/07/03 10:48:40;;;;;;;43.35;40.40;;;13.40;99.90;;;;;;5033403;28;20029;-62
2021/07/03 10:51:13;;;;;;;44.03;41.13;;;13.40;99.90;;;;;;5033402;28;20026;-61
2021/07/03 10:53:41;;;;;;;47.47;44.10;;;13.40;99.90;;;;;;5033165;28;20026;-60
2021/07/03 10:56:14;;;;;;;47.35;44.15;;;13.30;99.90;;;;;;5033032;28;20076;-62
2021/07/03 10:58:44;;;;;;;48.88;45.38;;;13.20;99.90;;;;;;5033335;28;20028;-61
2021/07/03 11:01:14;;;;;;;51.58;48.15;;;13.10;99.90;;;;;;5033104;28;20433;-62
2021/07/03 11:03:48;;;;;;;48.72;45.63;;;13.00;99.90;;;;;;5032869;28;20052;-62
2021/07/03 11:06:21;;;;;;;48.85;45.67;;;13.00;99.90;;;;;;5033022;28;20037;-61
2021/07/03 11:09:04;;;;;;;49.17;46.00;;;12.90;99.90;;;;;;5032628;28;20080;-63
2021/07/03 11:11:40;;;;;;;45.95;42.85;;;12.90;99.90;;;;;;5032982;28;20033;-61
2021/07/03 11:14:07;;;;;;;45.28;42.33;;;12.90;99.90;;;;;;5033207;28;20033;-61
2021/07/03 11:16:36;;;;;;;44.58;41.47;;;12.90;99.90;;;;;;5032846;28;20112;-62
2021/07/03 11:19:03;;;;;;;41.78;39.22;;;12.80;99.90;;;;;;5032839;28;20044;-62
2021/07/03 11:21:31;;;;;;;40.83;38.22;;;12.80;99.90;;;;;;5032673;28;20048;-62
2021/07/03 11:24:01;;;;;;;40.65;38.05;;;12.80;99.90;;;;;;5031565;28;20030;-63
2021/07/03 11:26:29;;;;;;;38.13;35.83;;;12.80;99.90;;;;;;5032735;28;20382;-62
2021/07/03 11:28:58;;;;;;;35.90;33.72;;;12.80;99.90;;;;;;5032526;28;20140;-62
2021/07/03 11:31:26;;;;;;;33.55;31.63;;;12.80;99.90;;;;;;5032609;28;20040;-61
2021/07/03 11:33:56;;;;;;;32.08;30.27;;;12.80;99.90;;;;;;5032270;28;20028;-61
2021/07/03 11:36:23;;;;;;;30.60;29.00;;;12.70;99.90;;;;;;5032627;28;20021;-61
2021/07/03 11:38:58;;;;;;;29.63;28.02;;;12.70;99.90;;;;;;5032544;28;20105;-61
2021/07/03 11:41:28;;;;;;;28.92;27.42;;;12.70;99.90;;;;;;5032564;28;20022;-62
2021/07/03 11:44:04;;;;;;;31.23;28.60;;;12.70;99.90;;;;;;5032739;28;20025;-62
2021/07/03 11:46:32;;;;;;;29.58;28.02;;;12.70;99.90;;;;;;5032472;28;20079;-63
2021/07/03 11:48:59;;;;;;;30.17;28.48;;;12.60;99.90;;;;;;5032496;28;20112;-62
2021/07/03 11:51:27;;;;;;;29.85;28.25;;;12.30;99.90;;;;;;5032502;28;20079;-63
2021/07/03 11:53:54;;;;;;;29.15;27.30;;;12.20;99.90;;;;;;5032485;28;20411;-63
2021/07/03 11:56:23;;;;;;;29.48;27.73;;;12.20;99.90;;;;;;5031366;28;20040;-62
2021/07/03 11:58:51;;;;;;;30.85;29.10;;;12.10;99.90;;;;;;5032378;28;20044;-61
2021/07/03 12:01:20;;;;;;;31.27;29.48;;;12.00;99.90;;;;;;5032412;28;20163;-62
2021/07/03 12:03:48;;;;;;;30.65;28.90;;;11.90;99.90;;;;;;5032262;28;20052;-62
2021/07/03 12:06:23;;;;;;;31.88;29.98;;;11.80;99.90;;;;;;5032451;28;20379;-62
2021/07/03 12:08:52;;;;;;;31.65;29.85;;;11.70;99.90;;;;;;5032448;28;20044;-62
2021/07/03 12:11:23;;;;;;;31.75;29.95;;;11.80;99.90;;;;;;5032245;28;20026;-63
2021/07/03 12:13:53;;;;;;;33.67;31.77;;;11.80;99.90;;;;;;5032247;28;20076;-62
2021/07/03 12:16:23;;;;;;;34.83;32.65;;;11.80;99.90;;;;;;5030989;28;20028;-62
2021/07/03 12:18:55;;;;;;;34.70;32.80;;;11.80;99.90;;;;;;5032319;28;20032;-61
2021/07/03 12:21:26;;;;;;;35.17;33.17;;;11.80;99.90;;;;;;5032210;28;20049;-62
2021/07/03 12:23:56;;;;;;;37.55;35.38;;;11.80;99.90;;;;;;5032205;28;20029;-61
2021/07/03 12:26:29;;;;;;;39.10;37.00;;;11.70;99.90;;;;;;5032153;28;20064;-62
2021/07/03 12:28:58;;;;;;;38.53;36.42;;;11.60;99.90;;;;;;5032310;28;20021;-62
2021/07/03 12:31:37;;;;;;;40.33;38.13;;;11.50;99.90;;;;;;5032022;28;20052;-62
2021/07/03 12:34:14;;;;;;;42.78;40.35;;;11.40;99.90;;;;;;5032140;28;20021;-61
2021/07/03 12:36:43;;;;;;;44.47;41.95;;;11.30;99.90;;;;;;5032170;28;20025;-61
2021/07/03 12:39:14;;;;;;;41.53;38.83;;;11.40;99.90;;;;;;5032172;28;20133;-61
2021/07/03 12:41:44;;;;;;;43.10;40.40;;;11.50;99.90;;;;;;5032106;28;20132;-62
2021/07/03 12:44:12;;;;;;;47.10;44.00;;;11.40;99.90;;;;;;5034090;28;20033;-61